Time;durP1;ratioP1;P1;durP2;ratioP2;P2;SDS_P1;SDS_P2;PMS_P1;PMS_P2;Temp;Humidity;BMP_temperature;BMP_pressure;BME280_temperature;BME280_humidity;BME280_pressure;Samples;Min_cycle;Max_cycle;Signal;HPM_P1;HPM_P2
2023/05/07 00:01:08;;;;;;;12.77;9.05;;;15.50;99.90;;;;;;4969355;28;20466;-86
2023/05/07 00:03:34;;;;;;;13.85;7.35;;;15.50;99.90;;;;;;4949652;28;20050;-86
2023/05/07 00:06:00;;;;;;;12.75;9.35;;;15.50;99.90;;;;;;4968688;28;20073;-86
2023/05/07 00:08:25;;;;;;;12.73;10.52;;;15.50;99.90;;;;;;4969078;28;20070;-86
2023/05/07 00:10:51;;;;;;;13.20;10.63;;;15.50;99.90;;;;;;4948606;28;20027;-86
2023/05/07 00:13:16;;;;;;;15.57;8.20;;;15.50;99.90;;;;;;4954240;28;20460;-86
2023/05/07 00:15:42;;;;;;;13.60;8.27;;;15.40;99.90;;;;;;4971076;28;20043;-86
2023/05/07 00:18:07;;;;;;;15.23;8.88;;;15.40;99.90;;;;;;4970112;28;20441;-86
2023/05/07 00:20:33;;;;;;;15.90;10.93;;;15.30;99.90;;;;;;4967335;28;20043;-86
2023/05/07 00:22:58;;;;;;;16.10;11.48;;;15.40;99.90;;;;;;4970487;28;20552;-86
2023/05/07 00:25:24;;;;;;;13.23;7.93;;;15.40;99.90;;;;;;4969982;28;20039;-86
2023/05/07 00:27:50;;;;;;;14.73;10.05;;;15.40;99.90;;;;;;4964511;28;20042;-86
2023/05/07 00:30:15;;;;;;;14.95;13.35;;;15.30;99.90;;;;;;4969494;28;20090;-85
2023/05/07 00:32:41;;;;;;;15.85;12.95;;;15.30;99.90;;;;;;4949369;28;20046;-86
2023/05/07 00:35:07;;;;;;;15.63;13.50;;;15.30;99.90;;;;;;4968382;28;20118;-86
2023/05/07 00:37:33;;;;;;;15.68;13.98;;;15.30;99.90;;;;;;4970129;28;21376;-86
2023/05/07 00:39:59;;;;;;;15.23;10.40;;;15.30;99.90;;;;;;4963734;28;20086;-87
2023/05/07 00:42:24;;;;;;;17.10;10.98;;;15.20;99.90;;;;;;4970083;28;20038;-85
2023/05/07 00:44:50;;;;;;;22.77;18.08;;;15.20;99.90;;;;;;4966911;28;20057;-86
2023/05/07 00:47:16;;;;;;;18.83;16.83;;;15.10;99.90;;;;;;4965980;28;20035;-85
2023/05/07 00:49:43;;;;;;;18.85;16.52;;;15.10;99.90;;;;;;4969167;28;20039;-86
2023/05/07 00:52:15;;;;;;;19.20;17.15;;;15.10;99.90;;;;;;4947359;28;20090;-86
2023/05/07 00:54:42;;;;;;;18.90;16.80;;;15.20;99.90;;;;;;4967196;28;20046;-86
2023/05/07 00:57:10;;;;;;;19.00;11.63;;;15.10;99.90;;;;;;4968909;28;20543;-86
2023/05/07 00:59:36;;;;;;;18.27;12.02;;;15.00;99.90;;;;;;4963785;28;20042;-86
2023/05/07 01:02:02;;;;;;;15.80;11.32;;;15.00;99.90;;;;;;4969066;28;20117;-86
2023/05/07 01:04:28;;;;;;;19.50;17.20;;;14.90;99.90;;;;;;4966836;28;20094;-86
2023/05/07 01:06:56;;;;;;;16.88;11.70;;;14.80;99.90;;;;;;4968721;28;20062;-86
2023/05/07 01:09:23;;;;;;;20.98;18.88;;;14.80;99.90;;;;;;4966027;28;20047;-86
2023/05/07 01:11:51;;;;;;;20.48;18.27;;;14.80;99.90;;;;;;4966386;28;20047;-86
2023/05/07 01:14:17;;;;;;;17.73;11.98;;;14.80;99.90;;;;;;4984064;28;20493;-86
2023/05/07 01:16:44;;;;;;;19.83;17.70;;;14.70;99.90;;;;;;4964432;28;20090;-86
2023/05/07 01:19:11;;;;;;;18.15;12.20;;;14.70;99.90;;;;;;4972160;28;20039;-86
2023/05/07 01:21:38;;;;;;;18.10;12.00;;;14.60;99.90;;;;;;4969114;28;20149;-86
2023/05/07 01:24:04;;;;;;;16.33;12.07;;;14.50;99.90;;;;;;4955283;28;20431;-86
2023/05/07 01:26:30;;;;;;;17.35;13.38;;;14.50;99.90;;;;;;4971031;28;20046;-85
2023/05/07 01:28:56;;;;;;;17.83;13.05;;;14.40;99.90;;;;;;4967616;28;20066;-86
2023/05/07 01:31:23;;;;;;;19.45;17.48;;;14.40;99.90;;;;;;4972824;28;20074;-86
2023/05/07 01:33:51;;;;;;;20.70;18.33;;;14.40;99.90;;;;;;4969576;28;20046;-86
2023/05/07 01:36:19;;;;;;;20.63;18.48;;;14.40;99.90;;;;;;4972230;28;20512;-85
2023/05/07 01:38:45;;;;;;;15.90;11.25;;;14.40;99.90;;;;;;4953765;28;20130;-85
2023/05/07 01:41:12;;;;;;;18.92;12.10;;;14.40;99.90;;;;;;4969297;28;20117;-86
2023/05/07 01:43:41;;;;;;;20.27;18.17;;;14.20;99.90;;;;;;4972741;28;20042;-86
2023/05/07 01:46:09;;;;;;;20.50;18.35;;;14.30;99.90;;;;;;4966844;28;20081;-85
2023/05/07 01:48:35;;;;;;;21.98;19.67;;;14.30;99.90;;;;;;4972473;28;20074;-85
2023/05/07 01:51:02;;;;;;;19.35;12.48;;;14.30;99.90;;;;;;4969654;28;20074;-85
2023/05/07 01:53:28;;;;;;;15.70;10.57;;;14.10;99.90;;;;;;4957039;28;20043;-86
2023/05/07 01:55:54;;;;;;;22.38;20.08;;;14.00;99.90;;;;;;4953327;29;20047;-86
2023/05/07 01:58:19;;;;;;;22.38;14.07;;;14.10;99.90;;;;;;4969361;28;20035;-86
2023/05/07 02:00:45;;;;;;;21.52;19.33;;;14.00;99.90;;;;;;4972889;28;20035;-85
2023/05/07 02:03:11;;;;;;;18.88;13.15;;;14.00;99.90;;;;;;4972629;28;20039;-85
2023/05/07 02:05:36;;;;;;;19.23;13.13;;;14.00;99.90;;;;;;4956752;28;20043;-85
2023/05/07 02:08:02;;;;;;;22.23;20.00;;;13.90;99.90;;;;;;4956497;28;20516;-85
2023/05/07 02:10:27;;;;;;;21.05;13.57;;;13.90;99.90;;;;;;4956236;28;20043;-85
2023/05/07 02:12:53;;;;;;;21.10;13.70;;;13.90;99.90;;;;;;4952630;28;20135;-86
2023/05/07 02:15:19;;;;;;;20.42;12.45;;;13.80;99.90;;;;;;4938454;28;20153;-86
2023/05/07 02:18:07;;;;;;;24.73;22.23;;;13.70;99.90;;;;;;4972194;28;20058;-85
2023/05/07 02:20:33;;;;;;;22.02;14.45;;;13.80;99.90;;;;;;4972150;28;20046;-86
2023/05/07 02:22:58;;;;;;;24.25;21.75;;;13.70;99.90;;;;;;4955515;28;20046;-85
2023/05/07 02:25:24;;;;;;;22.15;13.32;;;13.70;99.90;;;;;;4955330;28;20468;-86
2023/05/07 02:27:50;;;;;;;22.17;14.00;;;13.70;99.90;;;;;;4972010;28;20050;-85
2023/05/07 02:30:15;;;;;;;27.05;24.23;;;13.60;99.90;;;;;;4946937;28;20082;-86
2023/05/07 02:32:41;;;;;;;24.02;15.38;;;13.70;99.90;;;;;;4955797;28;20043;-85
2023/05/07 02:35:07;;;;;;;22.98;14.35;;;13.60;99.90;;;;;;4955361;28;20042;-86
2023/05/07 02:37:32;;;;;;;23.48;14.88;;;13.60;99.90;;;;;;4972089;28;20094;-86
2023/05/07 02:39:58;;;;;;;28.02;25.13;;;13.50;99.90;;;;;;4971620;28;20050;-86
2023/05/07 02:42:24;;;;;;;25.92;16.08;;;13.50;99.90;;;;;;4972200;28;20031;-86
2023/05/07 02:44:49;;;;;;;22.13;15.27;;;13.50;99.90;;;;;;4972470;28;20047;-86
2023/05/07 02:47:15;;;;;;;29.92;26.83;;;13.40;99.90;;;;;;4972445;28;20467;-86
2023/05/07 02:49:41;;;;;;;25.80;16.17;;;13.50;99.90;;;;;;4971831;28;20042;-86
2023/05/07 02:52:07;;;;;;;26.38;15.98;;;13.40;99.90;;;;;;4955289;28;20125;-85
2023/05/07 02:54:33;;;;;;;26.13;18.00;;;13.40;99.90;;;;;;4971706;28;20059;-85
2023/05/07 02:57:00;;;;;;;31.40;28.40;;;13.30;99.90;;;;;;4971463;28;20428;-85
2023/05/07 02:59:26;;;;;;;24.08;17.33;;;13.40;99.90;;;;;;4971951;28;20074;-86
2023/05/07 03:01:51;;;;;;;27.55;17.10;;;13.40;99.90;;;;;;4971244;28;20077;-85
2023/05/07 03:04:17;;;;;;;31.10;28.10;;;13.30;99.90;;;;;;4955459;28;20093;-86
2023/05/07 03:06:43;;;;;;;27.95;18.67;;;13.40;99.90;;;;;;4971805;28;20039;-86
2023/05/07 03:09:08;;;;;;;26.23;17.17;;;13.30;99.90;;;;;;4971393;28;20039;-86
2023/05/07 03:11:35;;;;;;;29.73;18.83;;;13.30;99.90;;;;;;4971530;28;20129;-86
2023/05/07 03:14:01;;;;;;;33.72;30.13;;;13.30;99.90;;;;;;4955684;28;20652;-85
2023/05/07 03:16:27;;;;;;;33.30;29.95;;;13.30;99.90;;;;;;4971073;28;20616;-85
2023/05/07 03:18:52;;;;;;;27.30;17.92;;;13.30;99.90;;;;;;4955616;28;20077;-85
2023/05/07 03:21:18;;;;;;;27.05;17.95;;;13.30;99.90;;;;;;4954783;28;20031;-85
2023/05/07 03:23:44;;;;;;;33.47;30.20;;;13.20;99.90;;;;;;4971587;28;20616;-85
2023/05/07 03:26:09;;;;;;;34.53;31.10;;;13.20;99.90;;;;;;4954756;28;20929;-85
2023/05/07 03:28:35;;;;;;;29.65;18.23;;;13.30;99.90;;;;;;4971170;28;20051;-85
2023/05/07 03:31:01;;;;;;;31.27;17.35;;;13.20;99.90;;;;;;4971284;28;20491;-85
2023/05/07 03:33:27;;;;;;;25.77;16.85;;;13.10;99.90;;;;;;4969992;28;20043;-85
2023/05/07 03:35:53;;;;;;;35.00;31.35;;;13.10;99.90;;;;;;4955106;28;20559;-85
2023/05/07 03:38:18;;;;;;;29.05;17.55;;;13.10;99.90;;;;;;4970765;28;20035;-85
2023/05/07 03:40:44;;;;;;;28.35;17.85;;;13.10;99.90;;;;;;4970369;28;20409;-85
2023/05/07 03:43:10;;;;;;;29.17;20.75;;;13.00;99.90;;;;;;4954536;28;20038;-85
2023/05/07 03:45:36;;;;;;;36.15;32.40;;;13.10;99.90;;;;;;4954581;28;20047;-86
2023/05/07 03:48:01;;;;;;;27.25;17.35;;;13.10;99.90;;;;;;4970756;28;20128;-86
2023/05/07 03:50:27;;;;;;;26.25;17.10;;;13.00;99.90;;;;;;4954175;28;20049;-86
2023/05/07 03:52:53;;;;;;;27.13;17.60;;;13.00;99.90;;;;;;4954884;28;20137;-86
2023/05/07 03:55:18;;;;;;;27.70;16.60;;;13.00;99.90;;;;;;4954811;28;20039;-86
2023/05/07 03:57:44;;;;;;;33.47;30.05;;;13.00;99.90;;;;;;4970969;28;20030;-86
2023/05/07 04:00:10;;;;;;;27.83;17.48;;;13.00;99.90;;;;;;4970655;28;20469;-86
2023/05/07 04:02:35;;;;;;;26.10;16.30;;;13.00;99.90;;;;;;4970461;28;20118;-86
2023/05/07 04:05:01;;;;;;;28.08;19.05;;;12.90;99.90;;;;;;4971584;28;20130;-87
2023/05/07 04:07:27;;;;;;;27.77;17.45;;;13.00;99.90;;;;;;4955348;28;20035;-87
2023/05/07 04:09:52;;;;;;;25.92;16.67;;;12.90;99.90;;;;;;4971274;28;20066;-86
2023/05/07 04:12:18;;;;;;;31.17;28.13;;;12.90;99.90;;;;;;4955762;28;20108;-87
2023/05/07 04:14:44;;;;;;;27.17;18.70;;;12.90;99.90;;;;;;4954672;28;20511;-86
2023/05/07 04:17:10;;;;;;;32.28;28.98;;;12.90;99.90;;;;;;4970179;28;20073;-86
2023/05/07 04:19:36;;;;;;;25.95;16.80;;;13.00;99.90;;;;;;4970006;28;20093;-87
2023/05/07 04:22:02;;;;;;;28.63;16.42;;;13.00;99.90;;;;;;4970605;28;20038;-86
2023/05/07 04:24:30;;;;;;;29.27;26.38;;;12.90;99.90;;;;;;4954555;28;20043;-86
2023/05/07 04:26:58;;;;;;;24.33;15.43;;;12.90;99.90;;;;;;4969533;28;20043;-86
2023/05/07 04:29:23;;;;;;;27.50;15.77;;;12.90;99.90;;;;;;4954401;28;20077;-86
2023/05/07 04:31:49;;;;;;;23.33;14.57;;;12.90;99.90;;;;;;4954027;28;20129;-87
2023/05/07 04:34:15;;;;;;;24.80;14.60;;;12.80;99.90;;;;;;4970062;28;20552;-86
2023/05/07 04:36:43;;;;;;;27.88;25.20;;;12.80;99.90;;;;;;4970252;28;20043;-86
2023/05/07 04:39:08;;;;;;;24.17;16.50;;;12.90;99.90;;;;;;4969792;28;20045;-87
2023/05/07 04:41:36;;;;;;;25.10;14.45;;;12.90;99.90;;;;;;4969927;28;20035;-86
2023/05/07 04:44:03;;;;;;;28.33;25.52;;;12.90;99.90;;;;;;4970189;28;20518;-86
2023/05/07 04:46:29;;;;;;;29.73;26.73;;;12.90;99.90;;;;;;4970016;28;20125;-86
2023/05/07 04:48:55;;;;;;;22.50;14.63;;;12.90;99.90;;;;;;4954348;28;20126;-87
2023/05/07 04:51:20;;;;;;;22.55;14.82;;;12.90;99.90;;;;;;4953157;28;20046;-87
2023/05/07 04:53:46;;;;;;;22.05;14.93;;;12.80;99.90;;;;;;4969722;28;20049;-87
2023/05/07 04:56:12;;;;;;;23.75;14.35;;;12.80;99.90;;;;;;4969961;28;20035;-88
2023/05/07 04:58:37;;;;;;;21.63;14.88;;;12.80;99.90;;;;;;4954064;28;20037;-87
2023/05/07 05:01:04;;;;;;;26.23;23.55;;;12.80;99.90;;;;;;4969779;28;20113;-87
2023/05/07 05:03:30;;;;;;;22.88;14.98;;;12.90;99.90;;;;;;4953216;28;20074;-87
2023/05/07 05:05:56;;;;;;;24.88;15.85;;;12.90;99.90;;;;;;4953645;28;20503;-87
2023/05/07 05:08:22;;;;;;;21.23;14.13;;;12.80;99.90;;;;;;4969104;28;20103;-87
2023/05/07 05:10:49;;;;;;;23.88;16.27;;;12.80;99.90;;;;;;4953699;28;20085;-86
2023/05/07 05:13:15;;;;;;;23.42;16.83;;;12.80;99.90;;;;;;4953097;28;20049;-87
2023/05/07 05:15:40;;;;;;;27.30;24.50;;;12.80;99.90;;;;;;4969787;28;20035;-86
2023/05/07 05:18:06;;;;;;;23.60;15.70;;;12.90;99.90;;;;;;4969645;28;20531;-86
2023/05/07 05:20:32;;;;;;;24.48;14.25;;;12.90;99.90;;;;;;4952738;28;20127;-87
2023/05/07 05:22:58;;;;;;;23.02;14.55;;;12.90;99.90;;;;;;4969871;28;20054;-87
2023/05/07 05:25:23;;;;;;;25.95;14.13;;;12.90;99.90;;;;;;4969977;28;20078;-87
2023/05/07 05:27:49;;;;;;;26.70;24.10;;;12.90;99.90;;;;;;4953145;28;20109;-87
2023/05/07 05:30:15;;;;;;;20.75;13.95;;;12.90;99.90;;;;;;4953355;28;20038;-87
2023/05/07 05:32:40;;;;;;;23.63;15.27;;;12.90;99.90;;;;;;4953272;28;20046;-87
2023/05/07 05:35:06;;;;;;;24.85;15.07;;;12.90;99.90;;;;;;4969897;28;20048;-87
2023/05/07 05:37:32;;;;;;;22.02;13.75;;;12.90;99.90;;;;;;4953765;28;20484;-86
2023/05/07 05:39:57;;;;;;;20.70;14.77;;;12.90;99.90;;;;;;4952683;28;20038;-87
2023/05/07 05:42:23;;;;;;;27.80;25.10;;;12.90;99.90;;;;;;4964469;28;20078;-87
2023/05/07 05:44:49;;;;;;;25.60;15.27;;;13.00;99.90;;;;;;4967221;28;20043;-86
2023/05/07 05:47:14;;;;;;;27.08;24.35;;;13.10;99.90;;;;;;4951254;28;20047;-86
2023/05/07 05:49:40;;;;;;;21.70;15.68;;;13.10;99.90;;;;;;4966402;28;20046;-86
2023/05/07 05:52:06;;;;;;;23.40;15.63;;;13.10;99.90;;;;;;4951420;28;20046;-86
2023/05/07 05:54:31;;;;;;;24.30;16.50;;;13.10;99.90;;;;;;4952403;28;20420;-86
2023/05/07 05:56:57;;;;;;;29.35;26.55;;;13.10;99.90;;;;;;4967755;28;20161;-87
2023/05/07 05:59:23;;;;;;;23.92;14.90;;;13.20;99.90;;;;;;4969111;28;20134;-86
2023/05/07 06:01:48;;;;;;;29.92;26.98;;;13.20;99.90;;;;;;4967682;28;20398;-87
2023/05/07 06:04:14;;;;;;;24.77;16.75;;;13.30;99.90;;;;;;4969262;28;20201;-87
2023/05/07 06:06:40;;;;;;;24.50;15.35;;;13.20;99.90;;;;;;4955388;28;20039;-87
2023/05/07 06:09:05;;;;;;;29.42;26.63;;;13.20;99.90;;;;;;4955622;28;20400;-87
2023/05/07 06:11:32;;;;;;;26.50;15.30;;;13.30;99.90;;;;;;4956043;28;20035;-87
2023/05/07 06:13:57;;;;;;;26.88;16.58;;;13.30;99.90;;;;;;4955440;28;20181;-88
2023/05/07 06:16:24;;;;;;;24.27;15.57;;;13.20;99.90;;;;;;4972185;28;20121;-87
2023/05/07 06:18:50;;;;;;;23.95;16.23;;;13.20;99.90;;;;;;4955978;28;20043;-86
2023/05/07 06:21:16;;;;;;;26.23;17.60;;;13.20;99.90;;;;;;4955165;28;20085;-87
2023/05/07 06:23:41;;;;;;;26.73;17.45;;;13.30;99.90;;;;;;4956402;28;20121;-86
2023/05/07 06:26:07;;;;;;;30.08;26.90;;;13.30;99.90;;;;;;4971752;28;20146;-86
2023/05/07 06:28:36;;;;;;;27.05;17.45;;;13.40;99.90;;;;;;4971900;28;20109;-86
2023/05/07 06:31:12;;;;;;;26.92;18.08;;;13.40;99.90;;;;;;4972415;28;20399;-86
2023/05/07 06:33:37;;;;;;;30.13;27.17;;;13.40;99.90;;;;;;4971643;28;20077;-86
2023/05/07 06:36:03;;;;;;;31.50;28.17;;;13.40;99.90;;;;;;4955911;28;20122;-86
2023/05/07 06:38:29;;;;;;;33.42;30.13;;;13.50;99.90;;;;;;4971348;28;20042;-86
2023/05/07 06:40:55;;;;;;;26.30;16.27;;;13.50;99.90;;;;;;4971150;28;20043;-87
2023/05/07 06:43:21;;;;;;;27.45;16.67;;;13.50;99.90;;;;;;4971702;28;20050;-86
2023/05/07 06:45:46;;;;;;;26.83;17.10;;;13.50;99.90;;;;;;4968324;28;20182;-87
2023/05/07 06:48:12;;;;;;;26.98;16.92;;;13.50;99.90;;;;;;4955632;28;20043;-86
2023/05/07 06:50:38;;;;;;;32.88;29.60;;;13.50;99.90;;;;;;4952571;29;20628;-87
2023/05/07 06:53:03;;;;;;;34.22;30.85;;;13.50;99.90;;;;;;4971184;28;20042;-86
2023/05/07 06:55:29;;;;;;;26.63;17.17;;;13.60;99.90;;;;;;4971574;28;20122;-86
2023/05/07 06:57:54;;;;;;;28.15;17.40;;;13.60;99.90;;;;;;4971104;28;20507;-87
2023/05/07 07:00:20;;;;;;;26.58;16.40;;;13.60;99.90;;;;;;4971161;28;20061;-86
2023/05/07 07:02:46;;;;;;;34.33;30.90;;;13.60;99.90;;;;;;4971565;28;20034;-86
2023/05/07 07:05:11;;;;;;;27.80;17.55;;;13.60;99.90;;;;;;4971377;28;20074;-87
2023/05/07 07:07:37;;;;;;;33.50;30.25;;;13.60;99.90;;;;;;4971151;28;20070;-86
2023/05/07 07:10:04;;;;;;;28.45;18.30;;;13.70;99.90;;;;;;4976755;28;20085;-86
2023/05/07 07:12:30;;;;;;;27.80;20.35;;;13.70;99.90;;;;;;4973486;28;20105;-87
2023/05/07 07:14:55;;;;;;;28.52;19.95;;;13.70;99.90;;;;;;4970971;28;20038;-86
2023/05/07 07:17:21;;;;;;;30.02;19.00;;;13.70;99.90;;;;;;4970397;28;20097;-86
2023/05/07 07:19:47;;;;;;;34.30;30.75;;;13.70;99.90;;;;;;4954515;28;20520;-87
2023/05/07 07:22:12;;;;;;;34.95;31.63;;;13.80;99.90;;;;;;4970309;28;20034;-86
2023/05/07 07:24:38;;;;;;;29.40;18.95;;;13.90;99.90;;;;;;4971238;28;20070;-86
2023/05/07 07:27:03;;;;;;;29.35;19.45;;;14.00;99.90;;;;;;4954446;28;20047;-86
2023/05/07 07:29:29;;;;;;;34.03;30.63;;;14.00;99.90;;;;;;4953804;28;20078;-86
2023/05/07 07:31:56;;;;;;;33.95;30.58;;;14.10;99.90;;;;;;4955229;28;20078;-86
2023/05/07 07:34:22;;;;;;;29.50;18.70;;;14.20;99.90;;;;;;4970372;28;20054;-86
2023/05/07 07:36:47;;;;;;;28.08;20.42;;;14.30;99.90;;;;;;4955646;28;20129;-86
2023/05/07 07:39:13;;;;;;;26.70;19.73;;;14.30;99.90;;;;;;4954970;28;20420;-86
2023/05/07 07:41:39;;;;;;;33.67;30.35;;;14.30;99.90;;;;;;4950649;28;20047;-87
2023/05/07 07:44:07;;;;;;;34.30;30.90;;;14.40;99.90;;;;;;4952679;29;20043;-86
2023/05/07 07:46:33;;;;;;;28.75;18.83;;;14.50;99.90;;;;;;4955224;28;20500;-86
2023/05/07 07:48:59;;;;;;;28.40;21.52;;;14.50;99.90;;;;;;4970324;28;20046;-86
2023/05/07 07:51:26;;;;;;;32.33;29.23;;;14.50;99.90;;;;;;4953795;28;20730;-87
2023/05/07 07:53:52;;;;;;;33.90;30.45;;;14.60;99.90;;;;;;4969416;28;20043;-87
2023/05/07 07:56:17;;;;;;;29.38;19.58;;;14.70;99.90;;;;;;4970716;28;20039;-87
2023/05/07 07:58:43;;;;;;;27.10;19.63;;;14.80;99.90;;;;;;4969799;28;20456;-87
2023/05/07 08:01:08;;;;;;;33.63;30.25;;;14.80;99.90;;;;;;4969418;28;20054;-88
2023/05/07 08:03:35;;;;;;;29.65;21.45;;;14.90;99.90;;;;;;4953978;28;20122;-87
2023/05/07 08:06:00;;;;;;;30.83;20.25;;;15.00;99.90;;;;;;4969905;28;20046;-87
2023/05/07 08:08:26;;;;;;;32.70;29.45;;;15.00;99.90;;;;;;4953441;28;20133;-87
2023/05/07 08:10:51;;;;;;;32.03;28.90;;;15.00;99.90;;;;;;4969175;28;20106;-86
2023/05/07 08:13:18;;;;;;;27.90;20.88;;;15.10;99.90;;;;;;4953980;28;20393;-87
2023/05/07 08:15:43;;;;;;;32.00;28.77;;;15.20;99.90;;;;;;4953585;28;20034;-87
2023/05/07 08:18:09;;;;;;;32.10;28.90;;;15.30;99.90;;;;;;4953918;28;20081;-87
2023/05/07 08:20:39;;;;;;;29.23;21.13;;;15.40;99.90;;;;;;4952738;28;20520;-87
2023/05/07 08:23:05;;;;;;;31.90;28.77;;;15.50;99.90;;;;;;4969477;28;20047;-87
2023/05/07 08:25:33;;;;;;;34.53;30.92;;;15.50;99.90;;;;;;4970668;28;20117;-87
2023/05/07 08:27:59;;;;;;;27.55;19.65;;;15.60;99.90;;;;;;4968973;28;20385;-87
2023/05/07 08:30:24;;;;;;;31.13;28.02;;;15.70;99.90;;;;;;4968882;28;20507;-87
2023/05/07 08:32:50;;;;;;;30.88;27.77;;;15.80;99.90;;;;;;4967896;28;20072;-87
2023/05/07 08:35:15;;;;;;;31.90;28.77;;;15.90;99.90;;;;;;4969590;28;20621;-87
2023/05/07 08:37:41;;;;;;;31.05;27.83;;;16.10;99.90;;;;;;4952772;28;20093;-87
2023/05/07 08:40:07;;;;;;;25.40;19.40;;;16.20;99.90;;;;;;4968107;28;20039;-87
2023/05/07 08:42:38;;;;;;;30.35;27.55;;;16.30;99.90;;;;;;4949840;29;20032;-87
2023/05/07 08:45:08;;;;;;;29.95;26.98;;;16.40;99.90;;;;;;4968047;28;20054;-87
2023/05/07 08:47:45;;;;;;;30.15;27.15;;;16.50;99.90;;;;;;4969130;28;20042;-85
2023/05/07 08:50:11;;;;;;;31.92;28.85;;;16.50;99.90;;;;;;4952216;28;20186;-85
2023/05/07 08:52:37;;;;;;;28.52;25.83;;;16.50;99.90;;;;;;4968778;28;20497;-85
2023/05/07 08:55:03;;;;;;;25.98;20.08;;;16.60;99.90;;;;;;4951566;28;20053;-85
2023/05/07 08:57:29;;;;;;;28.13;25.42;;;16.60;99.90;;;;;;4951521;28;20050;-85
2023/05/07 09:00:02;;;;;;;28.67;25.80;;;16.60;99.90;;;;;;4968447;28;20043;-85
2023/05/07 09:02:32;;;;;;;28.58;25.83;;;16.70;99.90;;;;;;4956558;28;20046;-85
2023/05/07 09:04:58;;;;;;;27.25;24.55;;;16.80;99.90;;;;;;4966146;28;20146;-85
2023/05/07 09:07:24;;;;;;;29.10;26.23;;;16.90;99.90;;;;;;4970163;28;20042;-86
2023/05/07 09:09:50;;;;;;;28.55;25.50;;;17.00;99.90;;;;;;4966073;28;20039;-86
2023/05/07 09:12:18;;;;;;;28.90;25.98;;;17.00;99.90;;;;;;4952225;28;20042;-86
2023/05/07 09:14:44;;;;;;;27.58;24.67;;;17.00;99.90;;;;;;4984214;28;20047;-86
2023/05/07 09:17:17;;;;;;;27.50;24.80;;;17.10;99.90;;;;;;4968788;28;20038;-85
2023/05/07 09:19:45;;;;;;;26.95;24.35;;;17.20;99.90;;;;;;4957391;28;20493;-86
2023/05/07 09:22:11;;;;;;;24.48;20.10;;;17.40;99.90;;;;;;4950261;28;20058;-86
2023/05/07 09:24:37;;;;;;;25.75;23.15;;;17.50;99.90;;;;;;4971155;28;20035;-86
2023/05/07 09:27:08;;;;;;;25.05;22.65;;;17.60;99.90;;;;;;4967652;28;20520;-86
2023/05/07 09:29:35;;;;;;;26.70;24.02;;;17.70;99.90;;;;;;4953027;28;20035;-86
2023/05/07 09:32:05;;;;;;;25.98;23.38;;;17.90;99.90;;;;;;4970885;28;20101;-86
2023/05/07 09:34:31;;;;;;;28.02;25.42;;;18.00;99.90;;;;;;4968675;28;20162;-86
2023/05/07 09:37:04;;;;;;;25.75;23.08;;;18.10;99.90;;;;;;4950151;29;20114;-86
2023/05/07 09:39:47;;;;;;;24.50;22.10;;;18.20;99.90;;;;;;4954437;28;20037;-86
2023/05/07 09:42:14;;;;;;;24.13;21.70;;;18.30;99.90;;;;;;4953983;28;20481;-87
2023/05/07 09:44:42;;;;;;;24.30;21.92;;;18.40;99.90;;;;;;4964383;28;20412;-87
2023/05/07 09:47:08;;;;;;;24.40;21.90;;;18.50;99.90;;;;;;4972107;28;20134;-86
2023/05/07 09:49:37;;;;;;;23.23;20.83;;;18.70;99.10;;;;;;4940961;28;20122;-86
2023/05/07 09:52:06;;;;;;;23.75;21.17;;;18.70;98.10;;;;;;4972354;28;20066;-86
2023/05/07 09:54:33;;;;;;;24.05;21.75;;;18.90;97.90;;;;;;4954716;28;20045;-86
2023/05/07 09:57:02;;;;;;;22.65;20.38;;;19.00;97.80;;;;;;4972792;28;20085;-86
2023/05/07 09:59:30;;;;;;;23.77;21.33;;;19.00;97.10;;;;;;4971514;28;20045;-86
2023/05/07 10:01:58;;;;;;;22.70;20.42;;;19.10;96.60;;;;;;4963558;28;20034;-86
2023/05/07 10:04:25;;;;;;;22.58;20.38;;;19.20;94.50;;;;;;4970231;28;20097;-86
2023/05/07 10:06:51;;;;;;;23.52;21.23;;;19.10;94.00;;;;;;4950979;29;20035;-86
2023/05/07 10:09:18;;;;;;;22.77;20.67;;;19.10;94.30;;;;;;4970669;28;20041;-86
2023/05/07 10:11:44;;;;;;;22.70;20.45;;;19.20;94.10;;;;;;4953708;28;20046;-86
2023/05/07 10:14:10;;;;;;;23.23;20.92;;;19.20;95.10;;;;;;4970881;28;20045;-86
2023/05/07 10:16:36;;;;;;;22.38;20.15;;;19.40;93.60;;;;;;4981909;28;20056;-86
2023/05/07 10:19:07;;;;;;;22.25;20.00;;;19.40;94.40;;;;;;4959697;28;20101;-86
2023/05/07 10:21:59;;;;;;;22.88;20.48;;;19.60;93.30;;;;;;4968506;28;20508;-86
2023/05/07 10:24:33;;;;;;;21.67;19.47;;;19.60;91.00;;;;;;4947405;28;20520;-86
2023/05/07 10:27:02;;;;;;;22.15;19.95;;;19.70;92.40;;;;;;4970940;28;20491;-86
2023/05/07 10:30:06;;;;;;;22.60;20.30;;;19.80;92.60;;;;;;4971373;28;20464;-86
2023/05/07 10:32:50;;;;;;;21.95;19.75;;;19.90;93.00;;;;;;4970621;28;20086;-86
2023/05/07 10:35:26;;;;;;;20.92;18.75;;;20.00;91.10;;;;;;4965030;28;20097;-86
2023/05/07 10:37:52;;;;;;;22.13;20.02;;;20.10;90.90;;;;;;4971461;28;20607;-86
2023/05/07 10:40:19;;;;;;;20.73;18.52;;;20.20;90.00;;;;;;4971766;28;20057;-86
2023/05/07 10:42:59;;;;;;;21.35;19.30;;;20.30;89.70;;;;;;4968228;28;20043;-86
2023/05/07 10:45:25;;;;;;;21.40;19.20;;;20.40;87.20;;;;;;4970673;28;20038;-86
2023/05/07 10:48:17;;;;;;;21.25;19.15;;;20.50;90.20;;;;;;4939425;28;20106;-86
2023/05/07 10:50:44;;;;;;;19.30;17.33;;;20.50;89.80;;;;;;4946983;28;20524;-86
2023/05/07 10:53:18;;;;;;;20.58;18.52;;;20.70;89.00;;;;;;4954685;28;20046;-87
2023/05/07 10:55:49;;;;;;;19.58;17.65;;;20.80;87.60;;;;;;4985375;28;20125;-87
2023/05/07 10:58:27;;;;;;;20.63;18.63;;;21.00;89.30;;;;;;4955258;28;20042;-86
2023/05/07 11:00:58;;;;;;;20.30;18.38;;;21.10;87.10;;;;;;4970858;28;20046;-85
2023/05/07 11:03:24;;;;;;;18.98;17.10;;;21.20;85.80;;;;;;4951335;28;20140;-86
2023/05/07 11:06:12;;;;;;;21.17;19.02;;;21.30;86.60;;;;;;4968187;28;20491;-87
2023/05/07 11:08:58;;;;;;;18.38;16.48;;;21.50;85.00;;;;;;4952308;28;20039;-87
2023/05/07 11:11:51;;;;;;;18.83;16.83;;;21.60;86.70;;;;;;4969671;28;20062;-87
2023/05/07 11:14:35;;;;;;;;;;;21.70;83.30;;;;;;4985515;28;20055;-87
2023/05/07 11:17:04;;;;;;;20.58;18.48;;;21.70;84.10;;;;;;4953656;28;20343;-87
2023/05/07 11:19:52;;;;;;;18.95;16.95;;;21.80;82.00;;;;;;4953631;28;20030;-87
2023/05/07 11:22:33;;;;;;;19.63;17.05;;;21.90;79.20;;;;;;4954216;28;20148;-86
2023/05/07 11:25:03;;;;;;;19.25;17.25;;;21.90;79.60;;;;;;4986129;28;20137;-87
2023/05/07 11:27:29;;;;;;;20.25;18.05;;;21.90;78.70;;;;;;4969627;28;20058;-86
2023/05/07 11:29:56;;;;;;;20.55;18.35;;;22.00;77.60;;;;;;4953452;28;20173;-86
2023/05/07 11:32:26;;;;;;;18.25;16.45;;;22.10;78.10;;;;;;4963990;28;20039;-87
2023/05/07 11:34:56;;;;;;;18.65;16.85;;;22.20;77.20;;;;;;4940908;28;20046;-87
2023/05/07 11:37:23;;;;;;;19.92;17.80;;;22.30;77.20;;;;;;4951351;28;20066;-86
2023/05/07 11:39:54;;;;;;;19.60;17.58;;;22.50;78.30;;;;;;4960619;28;20031;-87
2023/05/07 11:42:31;;;;;;;23.98;21.48;;;22.60;76.10;;;;;;4966388;28;20117;-87
2023/05/07 11:44:57;;;;;;;18.60;16.80;;;22.70;74.60;;;;;;4960537;28;20039;-87
2023/05/07 11:47:22;;;;;;;19.33;17.42;;;22.70;75.50;;;;;;4952397;28;20081;-87
2023/05/07 11:49:49;;;;;;;19.23;16.92;;;22.80;74.60;;;;;;4970264;28;20046;-87
2023/05/07 11:52:16;;;;;;;19.73;16.55;;;22.80;75.60;;;;;;4970543;28;20038;-86
2023/05/07 11:54:48;;;;;;;18.65;16.77;;;22.90;75.20;;;;;;4965837;28;20039;-87
2023/05/07 11:57:16;;;;;;;18.60;16.67;;;22.90;74.00;;;;;;4975500;28;20045;-87
2023/05/07 11:59:44;;;;;;;19.83;17.77;;;22.80;73.20;;;;;;4969887;28;20039;-87
2023/05/07 12:02:10;;;;;;;18.33;16.63;;;22.80;73.30;;;;;;4964276;28;20027;-87
2023/05/07 12:04:37;;;;;;;18.00;16.10;;;22.80;73.50;;;;;;4954018;28;20096;-86
2023/05/07 12:07:03;;;;;;;18.02;16.23;;;22.80;74.00;;;;;;4950889;28;20039;-87
2023/05/07 12:09:29;;;;;;;17.77;16.05;;;22.90;73.90;;;;;;4952256;28;20057;-87
2023/05/07 12:11:56;;;;;;;18.35;16.55;;;22.90;73.20;;;;;;4966711;28;20422;-87
2023/05/07 12:14:21;;;;;;;17.63;15.82;;;22.90;73.00;;;;;;4966943;28;20038;-87
2023/05/07 12:16:47;;;;;;;18.73;16.92;;;23.10;73.10;;;;;;4954068;28;20431;-86
2023/05/07 12:19:13;;;;;;;17.20;15.43;;;23.20;72.20;;;;;;4944461;28;20082;-87
2023/05/07 12:21:40;;;;;;;16.75;15.05;;;23.30;73.10;;;;;;4966069;28;20088;-86
2023/05/07 12:24:06;;;;;;;16.98;15.02;;;23.50;73.30;;;;;;4955790;28;20063;-87
2023/05/07 12:26:31;;;;;;;17.95;16.20;;;23.60;72.30;;;;;;4950778;28;20050;-87
2023/05/07 12:28:58;;;;;;;16.92;15.18;;;23.60;70.50;;;;;;4968692;28;20026;-86